createdAt,value
2018-11-04T00:02:06.113Z,2.70
2018-11-04T00:04:34.436Z,2.70
2018-11-04T00:07:02.752Z,2.60
2018-11-04T00:09:31.078Z,2.60
2018-11-04T00:11:59.385Z,2.60
2018-11-04T00:14:27.730Z,2.60
2018-11-04T00:16:56.076Z,2.70
2018-11-04T00:19:25.145Z,2.60
2018-11-04T00:21:53.492Z,2.60
2018-11-04T00:24:21.803Z,2.50
2018-11-04T00:26:50.149Z,2.50
2018-11-04T00:29:18.500Z,2.50
2018-11-04T00:31:46.808Z,2.50
2018-11-04T00:34:15.252Z,2.50
2018-11-04T00:36:43.816Z,2.50
2018-11-04T00:39:12.119Z,2.50
2018-11-04T00:41:40.426Z,2.50
2018-11-04T00:44:08.696Z,2.50
2018-11-04T00:46:37.025Z,2.50
2018-11-04T00:49:05.724Z,2.50
2018-11-04T00:51:34.422Z,2.50
2018-11-04T00:54:02.749Z,2.50
2018-11-04T00:56:31.053Z,2.40
2018-11-04T00:58:59.332Z,2.40
2018-11-04T01:01:27.759Z,2.30
2018-11-04T01:03:56.039Z,2.30
2018-11-04T01:06:24.358Z,2.30
2018-11-04T01:08:52.687Z,2.30
2018-11-04T01:11:21.002Z,2.40
2018-11-04T01:13:49.956Z,2.40
2018-11-04T01:16:18.265Z,2.40
2018-11-04T01:18:46.593Z,2.40
2018-11-04T01:21:15.367Z,2.50
2018-11-04T01:23:43.618Z,2.30
2018-11-04T01:26:11.934Z,2.40
2018-11-04T01:28:40.244Z,2.40
2018-11-04T01:31:08.530Z,2.50
2018-11-04T01:33:37.565Z,2.40
2018-11-04T01:36:05.937Z,2.50
2018-11-04T01:38:34.265Z,2.50
2018-11-04T01:41:03.540Z,2.50
2018-11-04T01:43:31.874Z,2.40
2018-11-04T01:46:00.173Z,2.40
2018-11-04T01:48:28.485Z,2.40
2018-11-04T01:50:56.858Z,2.40
2018-11-04T01:53:25.157Z,2.50
2018-11-04T01:55:53.495Z,2.50
2018-11-04T01:58:21.826Z,2.50
2018-11-04T02:00:50.143Z,2.50
2018-11-04T02:03:18.449Z,2.40
2018-11-04T02:05:46.772Z,2.50
2018-11-04T02:08:15.117Z,2.40
2018-11-04T02:10:43.440Z,2.40
2018-11-04T02:13:11.749Z,2.40
2018-11-04T02:15:40.097Z,2.40
2018-11-04T02:18:08.391Z,2.40
2018-11-04T02:20:36.755Z,2.40
2018-11-04T02:23:05.171Z,2.40
2018-11-04T02:25:33.520Z,2.50
2018-11-04T02:28:01.860Z,2.50
2018-11-04T02:30:30.166Z,2.50
2018-11-04T02:32:58.509Z,2.50
2018-11-04T02:35:26.813Z,2.40
2018-11-04T02:37:55.109Z,2.40
2018-11-04T02:40:23.428Z,2.30
2018-11-04T02:42:51.758Z,2.30
2018-11-04T02:45:20.792Z,2.30
2018-11-04T02:47:49.100Z,2.40
2018-11-04T02:50:17.425Z,2.30
2018-11-04T02:52:45.725Z,2.30
2018-11-04T02:55:14.066Z,2.40
2018-11-04T02:57:42.405Z,2.40
2018-11-04T03:00:12.874Z,2.40
2018-11-04T03:02:41.549Z,2.30
2018-11-04T03:05:10.632Z,2.40
2018-11-04T03:07:39.308Z,2.40
2018-11-04T03:10:08.252Z,2.40
2018-11-04T03:12:36.561Z,2.50
2018-11-04T03:15:04.994Z,2.50
2018-11-04T03:17:33.293Z,2.50
2018-11-04T03:20:02.277Z,2.50
2018-11-04T03:22:31.347Z,2.40
2018-11-04T03:24:59.814Z,2.50
2018-11-04T03:27:28.285Z,2.50
2018-11-04T03:29:56.578Z,2.50
2018-11-04T03:32:24.942Z,2.50
2018-11-04T03:34:53.251Z,2.50
2018-11-04T03:37:21.801Z,2.50
2018-11-04T03:39:50.584Z,2.40
2018-11-04T03:42:19.638Z,2.30
2018-11-04T03:44:47.993Z,2.30
2018-11-04T03:47:16.295Z,2.20
2018-11-04T03:49:44.598Z,2.30
2018-11-04T03:52:12.911Z,2.30
2018-11-04T03:54:41.246Z,2.20
2018-11-04T03:57:09.565Z,2.20
2018-11-04T03:59:38.644Z,2.10
2018-11-04T04:02:07.232Z,2.20
2018-11-04T04:04:35.546Z,2.20
2018-11-04T04:07:03.887Z,2.20
2018-11-04T04:09:32.842Z,2.30
2018-11-04T04:12:01.149Z,2.30
2018-11-04T04:14:30.206Z,2.30
2018-11-04T04:16:58.518Z,2.30
2018-11-04T04:19:26.824Z,2.30
2018-11-04T04:21:55.185Z,2.50
2018-11-04T04:24:24.029Z,2.50
2018-11-04T04:26:52.338Z,2.50
2018-11-04T04:29:20.658Z,2.50
2018-11-04T04:31:48.973Z,2.60
2018-11-04T04:34:17.315Z,2.80
2018-11-04T04:36:45.661Z,2.90
2018-11-04T04:39:14.001Z,3.00
2018-11-04T04:41:42.296Z,3.10
2018-11-04T04:44:10.612Z,3.20
2018-11-04T04:46:39.738Z,3.40
2018-11-04T04:49:08.039Z,3.40
2018-11-04T04:51:36.364Z,3.50
2018-11-04T04:54:05.021Z,3.60
2018-11-04T04:56:33.324Z,3.70
2018-11-04T04:59:01.625Z,3.80
2018-11-04T05:01:29.947Z,3.90
2018-11-04T05:03:58.262Z,3.90
2018-11-04T05:06:26.897Z,4.00
2018-11-04T05:08:55.220Z,4.00
2018-11-04T05:11:23.637Z,4.00
2018-11-04T05:13:52.289Z,4.10
2018-11-04T05:16:20.597Z,4.10
2018-11-04T05:18:48.923Z,4.20
2018-11-04T05:21:17.305Z,4.20
2018-11-04T05:23:45.622Z,4.20
2018-11-04T05:26:13.941Z,4.30
2018-11-04T05:28:42.232Z,4.30
2018-11-04T05:31:10.542Z,4.40
2018-11-04T05:33:38.853Z,4.40
2018-11-04T05:36:07.181Z,4.50
2018-11-04T05:38:35.466Z,4.50
2018-11-04T05:41:03.804Z,4.50
2018-11-04T05:43:32.112Z,4.50
2018-11-04T05:46:00.438Z,4.50
2018-11-04T05:48:28.768Z,4.60
2018-11-04T05:50:57.084Z,4.60
2018-11-04T05:53:25.366Z,4.60
2018-11-04T05:55:53.685Z,4.70
2018-11-04T05:58:21.980Z,4.80
2018-11-04T06:00:50.310Z,4.80
2018-11-04T06:03:18.608Z,4.80
2018-11-04T06:05:46.902Z,4.90
2018-11-04T06:08:15.233Z,4.90
2018-11-04T06:10:43.545Z,4.90
2018-11-04T06:13:11.861Z,5.00
2018-11-04T06:15:40.197Z,4.90
2018-11-04T06:18:08.492Z,5.00
2018-11-04T06:20:36.833Z,4.90
2018-11-04T06:23:05.258Z,4.90
2018-11-04T06:25:33.589Z,5.00
2018-11-04T06:28:01.885Z,5.00
2018-11-04T06:30:30.177Z,5.00
2018-11-04T06:32:58.521Z,5.00
2018-11-04T06:35:26.816Z,5.00
2018-11-04T06:37:55.128Z,5.10
2018-11-04T06:40:23.446Z,5.10
2018-11-04T06:42:51.732Z,5.10
2018-11-04T06:45:20.072Z,5.10
2018-11-04T06:47:48.386Z,5.20
2018-11-04T06:50:16.714Z,5.30
2018-11-04T06:52:45.011Z,5.30
2018-11-04T06:55:13.323Z,5.30
2018-11-04T06:57:41.650Z,5.20
2018-11-04T07:00:11.261Z,5.30
2018-11-04T07:02:39.840Z,5.20
2018-11-04T07:05:08.197Z,5.40
2018-11-04T07:07:37.479Z,5.50
2018-11-04T07:10:08.062Z,5.60
2018-11-04T07:12:36.921Z,5.60
2018-11-04T07:15:05.765Z,5.60
2018-11-04T07:17:34.264Z,5.70
2018-11-04T07:20:04.048Z,5.70
2018-11-04T07:22:32.410Z,5.70
2018-11-04T07:25:00.963Z,5.90
2018-11-04T07:27:29.269Z,5.90
2018-11-04T07:29:58.616Z,6.00
2018-11-04T07:32:27.004Z,6.00
2018-11-04T07:34:55.320Z,6.00
2018-11-04T07:37:24.658Z,6.10
2018-11-04T07:39:52.967Z,6.20
2018-11-04T07:42:22.335Z,6.30
2018-11-04T07:44:50.835Z,6.30
2018-11-04T07:47:19.400Z,6.30
2018-11-04T07:49:47.901Z,6.40
2018-11-04T07:52:16.206Z,6.40
2018-11-04T07:54:45.213Z,6.60
2018-11-04T07:57:13.680Z,6.60
2018-11-04T07:59:42.255Z,6.70
2018-11-04T08:02:10.656Z,6.70
2018-11-04T08:04:39.182Z,6.70
2018-11-04T08:07:07.560Z,6.80
2018-11-04T08:09:36.169Z,6.90
2018-11-04T08:12:04.818Z,6.90
2018-11-04T08:14:33.197Z,7.00
2018-11-04T08:17:01.557Z,7.20
2018-11-04T08:19:29.940Z,7.50
2018-11-04T08:21:58.300Z,7.60
2018-11-04T08:24:27.538Z,7.70
2018-11-04T08:26:56.504Z,7.50
2018-11-04T08:29:24.801Z,7.40
2018-11-04T08:31:53.116Z,7.40
2018-11-04T08:34:21.404Z,7.50
2018-11-04T08:36:49.721Z,7.60
2018-11-04T08:39:18.076Z,7.60
2018-11-04T08:41:46.504Z,7.70
2018-11-04T08:44:14.857Z,7.80
2018-11-04T08:46:43.204Z,7.80
2018-11-04T08:49:11.521Z,7.90
2018-11-04T08:51:39.843Z,8.00
2018-11-04T08:54:08.700Z,8.00
2018-11-04T08:56:37.848Z,8.10
2018-11-04T08:59:07.002Z,8.10
2018-11-04T09:01:35.334Z,8.10
2018-11-04T09:04:03.689Z,8.30
2018-11-04T09:06:32.073Z,8.30
2018-11-04T09:09:00.450Z,8.50
2018-11-04T09:11:29.029Z,8.40
2018-11-04T09:13:57.865Z,8.50
2018-11-04T09:16:26.203Z,8.60
2018-11-04T09:18:54.577Z,8.70
2018-11-04T09:21:22.936Z,8.80
2018-11-04T09:23:51.274Z,8.90
2018-11-04T09:26:19.605Z,9.00
2018-11-04T09:28:47.969Z,9.00
2018-11-04T09:31:16.305Z,9.20
2018-11-04T09:33:44.673Z,9.20
2018-11-04T09:36:13.152Z,9.20
2018-11-04T09:38:41.333Z,9.30
2018-11-04T09:41:09.666Z,9.40
2018-11-04T09:43:38.004Z,9.40
2018-11-04T09:46:06.365Z,9.50
2018-11-04T09:48:34.810Z,9.60
2018-11-04T09:51:03.403Z,9.60
2018-11-04T09:53:31.938Z,9.70
2018-11-04T09:56:00.324Z,9.80
2018-11-04T09:58:28.833Z,9.80
2018-11-04T10:00:57.170Z,9.90
2018-11-04T10:03:26.293Z,9.90
2018-11-04T10:05:54.825Z,10.00
2018-11-04T10:08:23.412Z,10.00
2018-11-04T10:10:53.053Z,10.10
2018-11-04T10:13:21.649Z,10.30
2018-11-04T10:15:50.561Z,10.40
2018-11-04T10:18:18.986Z,10.40
2018-11-04T10:20:48.160Z,10.50
2018-11-04T10:23:16.137Z,10.50
2018-11-04T10:25:44.453Z,10.60
2018-11-04T10:28:12.802Z,10.50
2018-11-04T10:30:41.209Z,10.60
2018-11-04T10:33:09.545Z,10.70
2018-11-04T10:35:37.921Z,10.70
2018-11-04T10:38:07.482Z,10.80
2018-11-04T10:40:36.364Z,10.80
2018-11-04T10:43:05.075Z,10.80
2018-11-04T10:45:35.691Z,10.80
2018-11-04T10:48:05.241Z,10.90
2018-11-04T10:50:33.606Z,11.00
2018-11-04T10:53:01.955Z,11.00
2018-11-04T10:55:30.737Z,11.10
2018-11-04T10:57:59.077Z,11.20
2018-11-04T11:00:34.145Z,11.20
2018-11-04T11:03:02.531Z,11.20
2018-11-04T11:05:30.922Z,11.20
2018-11-04T11:07:59.400Z,11.30
2018-11-04T11:10:27.756Z,11.40
2018-11-04T11:12:56.109Z,11.40
2018-11-04T11:15:24.433Z,11.40
2018-11-04T11:17:52.733Z,11.50
2018-11-04T11:20:21.077Z,11.40
2018-11-04T11:22:49.435Z,11.50
2018-11-04T11:25:17.765Z,11.60
2018-11-04T11:27:46.254Z,11.70
2018-11-04T11:30:14.711Z,11.80
2018-11-04T11:32:42.990Z,11.80
2018-11-04T11:35:11.305Z,11.80
2018-11-04T11:37:39.834Z,11.80
2018-11-04T11:40:09.724Z,11.80
2018-11-04T11:42:38.314Z,11.90
2018-11-04T11:45:07.315Z,12.00
2018-11-04T11:47:35.768Z,12.10
2018-11-04T11:50:04.851Z,12.20
2018-11-04T11:52:34.485Z,12.20
2018-11-04T11:55:02.891Z,12.30
2018-11-04T11:57:31.362Z,12.50
2018-11-04T12:00:01.320Z,12.40
2018-11-04T12:02:30.190Z,12.40
2018-11-04T12:04:58.620Z,12.50
2018-11-04T12:07:26.943Z,12.60
2018-11-04T12:09:55.954Z,12.60
2018-11-04T12:12:24.316Z,12.60
2018-11-04T12:14:52.669Z,12.70
2018-11-04T12:17:22.174Z,12.80
2018-11-04T12:19:51.636Z,12.90
2018-11-04T12:22:20.209Z,13.00
2018-11-04T12:24:48.628Z,12.90
2018-11-04T12:27:16.945Z,12.90
2018-11-04T12:29:45.326Z,12.90
2018-11-04T12:32:13.662Z,13.00
2018-11-04T12:34:42.171Z,13.00
2018-11-04T12:37:10.546Z,13.00
2018-11-04T12:39:38.854Z,13.10
2018-11-04T12:42:07.193Z,13.00
2018-11-04T12:44:35.489Z,13.20
2018-11-04T12:47:03.865Z,13.30
2018-11-04T12:49:32.168Z,13.00
2018-11-04T12:52:00.566Z,13.00
2018-11-04T12:54:28.954Z,12.90
2018-11-04T12:56:57.301Z,13.00
2018-11-04T12:59:25.605Z,13.10
2018-11-04T13:01:53.967Z,13.20
2018-11-04T13:04:22.283Z,13.20
2018-11-04T13:06:50.624Z,13.30
2018-11-04T13:09:18.915Z,13.40
2018-11-04T13:11:47.261Z,13.40
2018-11-04T13:14:15.585Z,13.40
2018-11-04T13:16:44.567Z,13.30
2018-11-04T13:19:12.893Z,13.20
2018-11-04T13:21:41.330Z,13.30
2018-11-04T13:24:09.696Z,13.30
2018-11-04T13:26:38.005Z,13.30
2018-11-04T13:29:06.374Z,13.10
2018-11-04T13:31:34.731Z,13.20
2018-11-04T13:34:03.093Z,13.10
2018-11-04T13:36:31.410Z,13.30
2018-11-04T13:38:59.758Z,13.50
2018-11-04T13:41:28.089Z,13.70
2018-11-04T13:43:57.792Z,14.20
2018-11-04T13:46:26.135Z,14.40
2018-11-04T13:48:54.453Z,14.80
2018-11-04T13:51:22.805Z,15.10
2018-11-04T13:53:51.113Z,15.30
2018-11-04T13:56:21.198Z,15.40
2018-11-04T13:58:50.164Z,15.70
2018-11-04T14:01:18.512Z,16.00
2018-11-04T14:03:46.862Z,16.20
2018-11-04T14:06:15.208Z,16.00
2018-11-04T14:08:43.816Z,16.10
2018-11-04T14:11:12.191Z,16.10
2018-11-04T14:13:40.766Z,16.30
2018-11-04T14:16:09.217Z,16.40
2018-11-04T14:18:37.711Z,16.30
2018-11-04T14:21:06.810Z,16.60
2018-11-04T14:23:35.411Z,16.50
2018-11-04T14:26:03.745Z,17.10
2018-11-04T14:28:32.080Z,16.70
2018-11-04T14:31:00.453Z,16.80
2018-11-04T14:33:28.719Z,16.80
2018-11-04T14:35:57.038Z,16.70
2018-11-04T14:38:25.345Z,16.70
2018-11-04T14:40:53.673Z,16.70
2018-11-04T14:43:22.059Z,16.70
2018-11-04T14:45:51.239Z,16.70
2018-11-04T14:48:19.697Z,16.40
2018-11-04T14:50:48.069Z,16.00
2018-11-04T14:53:16.421Z,15.70
2018-11-04T14:55:44.785Z,15.40
2018-11-04T14:58:13.089Z,15.10
2018-11-04T15:00:42.097Z,14.70
2018-11-04T15:03:10.530Z,14.60
2018-11-04T15:05:38.861Z,14.40
2018-11-04T15:08:07.238Z,14.20
2018-11-04T15:10:35.564Z,14.10
2018-11-04T15:13:03.898Z,14.00
2018-11-04T15:15:32.287Z,13.70
2018-11-04T15:18:00.624Z,13.50
2018-11-04T15:20:28.976Z,13.40
2018-11-04T15:22:57.307Z,13.20
2018-11-04T15:25:25.649Z,13.20
2018-11-04T15:27:53.997Z,13.00
2018-11-04T15:30:22.329Z,12.90
2018-11-04T15:32:50.694Z,12.80
2018-11-04T15:35:19.050Z,12.70
2018-11-04T15:37:47.383Z,12.60
2018-11-04T15:40:16.526Z,12.40
2018-11-04T15:42:44.853Z,12.40
2018-11-04T15:45:14.226Z,12.30
2018-11-04T15:47:42.735Z,12.30
2018-11-04T15:50:13.081Z,12.30
2018-11-04T15:52:41.490Z,12.10
2018-11-04T15:55:10.101Z,12.10
2018-11-04T15:57:38.420Z,11.90
2018-11-04T16:00:09.421Z,11.90
2018-11-04T16:02:37.779Z,11.80
2018-11-04T16:05:06.459Z,11.70
2018-11-04T16:07:34.858Z,11.60
2018-11-04T16:10:03.627Z,11.60
2018-11-04T16:12:32.083Z,11.50
2018-11-04T16:15:00.475Z,11.40
2018-11-04T16:17:28.816Z,11.30
2018-11-04T16:19:57.303Z,11.30
2018-11-04T16:22:25.616Z,11.30
2018-11-04T16:24:54.061Z,11.20
2018-11-04T16:27:22.543Z,11.20
2018-11-04T16:29:51.441Z,11.10
2018-11-04T16:32:19.752Z,11.00
2018-11-04T16:34:49.109Z,11.00
2018-11-04T16:37:17.672Z,10.90
2018-11-04T16:39:46.352Z,10.90
2018-11-04T16:42:14.681Z,10.80
2018-11-04T16:44:44.509Z,10.70
2018-11-04T16:47:13.889Z,10.70
2018-11-04T16:49:42.858Z,10.60
2018-11-04T16:52:11.174Z,10.40
2018-11-04T16:54:39.488Z,10.40
2018-11-04T16:57:10.340Z,10.30
2018-11-04T16:59:39.135Z,10.30
2018-11-04T17:02:07.896Z,10.20
2018-11-04T17:04:36.438Z,10.20
2018-11-04T17:07:05.857Z,10.10
2018-11-04T17:09:36.014Z,10.10
2018-11-04T17:12:05.470Z,10.10
2018-11-04T17:14:35.041Z,9.90
2018-11-04T17:17:04.366Z,10.00
2018-11-04T17:19:34.746Z,9.90
2018-11-04T17:22:04.068Z,10.00
2018-11-04T17:24:34.196Z,10.00
2018-11-04T17:27:04.696Z,9.90
2018-11-04T17:29:34.040Z,9.90
2018-11-04T17:32:04.859Z,9.80
2018-11-04T17:34:34.657Z,9.80
2018-11-04T17:37:03.027Z,9.80
2018-11-04T17:39:31.398Z,9.80
2018-11-04T17:41:59.658Z,9.80
2018-11-04T17:44:28.056Z,9.90
2018-11-04T17:46:56.493Z,9.80
2018-11-04T17:49:25.007Z,9.80
2018-11-04T17:51:53.389Z,9.80
2018-11-04T17:54:21.705Z,9.90
2018-11-04T17:56:50.034Z,9.90
2018-11-04T17:59:18.369Z,9.90
2018-11-04T18:01:46.688Z,9.80
2018-11-04T18:04:15.069Z,9.80
2018-11-04T18:06:43.592Z,9.80
2018-11-04T18:09:12.084Z,9.80
2018-11-04T18:11:40.494Z,9.90
2018-11-04T18:14:08.821Z,9.90
2018-11-04T18:16:37.251Z,9.80
2018-11-04T18:19:05.701Z,9.80
2018-11-04T18:21:34.226Z,9.80
2018-11-04T18:24:02.566Z,9.90
2018-11-04T18:26:30.986Z,9.90
2018-11-04T18:28:59.188Z,9.90
2018-11-04T18:31:27.497Z,9.90
2018-11-04T18:33:56.121Z,9.90
2018-11-04T18:36:24.417Z,9.90
2018-11-04T18:38:52.752Z,9.90
2018-11-04T18:41:21.068Z,9.90
2018-11-04T18:43:49.603Z,9.90
2018-11-04T18:46:17.763Z,9.90
2018-11-04T18:48:46.146Z,9.90
2018-11-04T18:51:14.601Z,9.80
2018-11-04T18:53:42.933Z,9.90
2018-11-04T18:56:11.255Z,9.80
2018-11-04T18:58:39.580Z,9.70
2018-11-04T19:01:07.897Z,9.80
2018-11-04T19:03:36.300Z,9.70
2018-11-04T19:06:04.647Z,9.70
2018-11-04T19:08:33.100Z,9.70
2018-11-04T19:11:01.494Z,9.70
2018-11-04T19:13:29.801Z,9.60
2018-11-04T19:15:58.532Z,9.60
2018-11-04T19:18:28.094Z,9.60
2018-11-04T19:20:56.462Z,9.60
2018-11-04T19:23:26.037Z,9.60
2018-11-04T19:25:54.426Z,9.60
2018-11-04T19:28:23.675Z,9.50
2018-11-04T19:30:52.018Z,9.60
2018-11-04T19:33:21.081Z,9.60
2018-11-04T19:35:49.768Z,9.60
2018-11-04T19:38:19.105Z,9.60
2018-11-04T19:40:47.434Z,9.60
2018-11-04T19:43:18.331Z,9.60
2018-11-04T19:45:46.693Z,9.70
2018-11-04T19:48:16.465Z,9.70
2018-11-04T19:50:44.831Z,9.60
2018-11-04T19:53:13.780Z,9.50
2018-11-04T19:55:42.093Z,9.50
2018-11-04T19:58:10.497Z,9.50
2018-11-04T20:00:39.954Z,9.50
2018-11-04T20:03:08.697Z,9.50
2018-11-04T20:05:37.747Z,9.50
2018-11-04T20:08:06.467Z,9.50
2018-11-04T20:10:34.850Z,9.40
2018-11-04T20:13:08.579Z,9.40
2018-11-04T20:15:37.041Z,9.50
2018-11-04T20:18:11.149Z,9.50
2018-11-04T20:20:39.494Z,9.50
2018-11-04T20:23:08.296Z,9.50
2018-11-04T20:25:41.969Z,9.50
2018-11-04T20:28:10.944Z,9.50
2018-11-04T20:30:39.238Z,9.50
2018-11-04T20:33:09.677Z,9.50
2018-11-04T20:35:37.980Z,9.50
2018-11-04T20:38:06.525Z,9.40
2018-11-04T20:40:40.571Z,9.50
2018-11-04T20:43:08.946Z,9.40
2018-11-04T20:45:38.461Z,9.40
2018-11-04T20:48:12.451Z,9.40
2018-11-04T20:50:46.597Z,9.40
2018-11-04T20:53:31.212Z,9.50
2018-11-04T20:56:04.761Z,9.50
2018-11-04T20:58:34.115Z,9.40
2018-11-04T21:01:04.540Z,9.40
2018-11-04T21:03:32.939Z,9.40
2018-11-04T21:06:01.880Z,9.40
2018-11-04T21:08:31.376Z,9.30
2018-11-04T21:10:59.729Z,9.30
2018-11-04T21:13:28.595Z,9.40
2018-11-04T21:15:57.831Z,9.40
2018-11-04T21:18:26.448Z,9.40
2018-11-04T21:20:56.978Z,9.40
2018-11-04T21:23:25.423Z,9.50
2018-11-04T21:25:53.800Z,9.40
2018-11-04T21:28:22.183Z,9.50
2018-11-04T21:30:51.749Z,9.50
2018-11-04T21:33:20.075Z,9.50
2018-11-04T21:35:48.404Z,9.50
2018-11-04T21:38:16.722Z,9.40
2018-11-04T21:40:45.065Z,9.40
2018-11-04T21:43:13.625Z,9.40
2018-11-04T21:45:41.852Z,9.30
2018-11-04T21:48:10.232Z,9.30
2018-11-04T21:50:38.560Z,9.30
2018-11-04T21:53:07.876Z,9.20
2018-11-04T21:55:36.506Z,9.30
2018-11-04T21:58:08.801Z,9.20
2018-11-04T22:00:37.116Z,9.20
2018-11-04T22:03:05.630Z,9.10
2018-11-04T22:05:35.002Z,9.10
2018-11-04T22:08:03.324Z,9.10
2018-11-04T22:10:31.725Z,9.10
2018-11-04T22:12:59.960Z,9.10
2018-11-04T22:15:28.325Z,9.00
2018-11-04T22:17:56.677Z,9.00
2018-11-04T22:20:25.069Z,8.90
2018-11-04T22:22:53.503Z,8.80
2018-11-04T22:25:21.800Z,8.80
2018-11-04T22:27:50.173Z,8.80
2018-11-04T22:30:18.497Z,8.90
2018-11-04T22:32:46.864Z,8.90
2018-11-04T22:35:15.221Z,8.90
2018-11-04T22:37:43.545Z,8.80
2018-11-04T22:40:12.381Z,8.70
2018-11-04T22:42:41.547Z,8.70
2018-11-04T22:45:10.985Z,8.70
2018-11-04T22:47:39.777Z,8.60
2018-11-04T22:50:12.989Z,8.60
2018-11-04T22:52:41.963Z,8.60
2018-11-04T22:55:10.993Z,8.60
2018-11-04T22:57:39.370Z,8.60
2018-11-04T23:00:13.798Z,8.60
2018-11-04T23:02:42.217Z,8.60
2018-11-04T23:05:15.807Z,8.50
2018-11-04T23:07:44.453Z,8.50
2018-11-04T23:10:13.325Z,8.40
2018-11-04T23:12:41.669Z,8.40
2018-11-04T23:15:09.970Z,8.40
2018-11-04T23:17:38.357Z,8.40
2018-11-04T23:20:07.430Z,8.40
2018-11-04T23:22:35.953Z,8.30
2018-11-04T23:25:04.590Z,8.30
2018-11-04T23:27:32.916Z,8.40
2018-11-04T23:30:01.784Z,8.40
2018-11-04T23:32:30.104Z,8.40
2018-11-04T23:34:59.394Z,8.40
2018-11-04T23:37:27.707Z,8.40
2018-11-04T23:39:56.009Z,8.40
2018-11-04T23:42:24.369Z,8.40
2018-11-04T23:44:52.679Z,8.40
2018-11-04T23:47:21.021Z,8.40
2018-11-04T23:49:49.458Z,8.40
2018-11-04T23:52:17.764Z,8.40
2018-11-04T23:54:46.353Z,8.30
2018-11-04T23:57:14.660Z,8.30
2018-11-04T23:59:43.010Z,8.20
